North Town, Illinois
Current Conditions -  °F | °C
As of 2:51 AM on Wednesday 22 Oct 2014 (Local Time) from KORD Reporting Station
Overcast Overcast  
Wind Chill: 47°   Ceiling: 3000
Heat Index: 47°   Visibility: 10mi
Dew Point: 39°   Wind: 0mph
Humidity: 74%   Direction: NA
Pressure: 30.27"   Gusts: NA
Location:  42.004°N, 87.7052°W
Report Text: KORD 220751Z 00000KT 10SM OVC030 08/04 A3027 RMK AO2 SLP254 T00830039
Loading
Personal Weather Stations






























Interactive Weather Map
Tropical Storm Tracking
New forecast layout! Learn more

10-Day Weather Forecast

Advertisements
Track Severe Weather on mobile